createdAt,value
2022-11-25T00:00:52.708Z,24.20
2022-11-25T00:01:52.698Z,24.80
2022-11-25T00:02:52.911Z,22.80
2022-11-25T00:03:52.834Z,25.20
2022-11-25T00:04:52.722Z,30.60
2022-11-25T00:05:52.690Z,22.70
2022-11-25T00:06:58.601Z,26.00
2022-11-25T00:07:58.705Z,29.70
2022-11-25T00:08:58.664Z,31.40
2022-11-25T00:11:52.664Z,26.70
2022-11-25T00:12:52.654Z,26.70
2022-11-25T00:13:52.690Z,26.60
2022-11-25T00:14:52.830Z,23.40
2022-11-25T00:15:52.692Z,27.50
2022-11-25T00:16:52.824Z,30.50
2022-11-25T00:17:52.697Z,25.20
2022-11-25T00:18:52.707Z,25.80
2022-11-25T00:19:52.706Z,26.70
2022-11-25T00:20:52.705Z,26.80
2022-11-25T00:21:57.658Z,29.10
2022-11-25T00:22:57.710Z,33.30
2022-11-25T00:23:58.685Z,25.80
2022-11-25T00:24:58.828Z,27.30
2022-11-25T00:25:58.685Z,23.10
2022-11-25T00:26:58.826Z,26.40
2022-11-25T00:27:58.687Z,35.90
2022-11-25T00:28:58.706Z,31.00
2022-11-25T00:29:58.725Z,23.90
2022-11-25T00:30:58.704Z,24.70
2022-11-25T00:31:58.752Z,25.60
2022-11-25T00:32:58.692Z,25.00
2022-11-25T00:33:58.675Z,33.20
2022-11-25T00:34:59.319Z,28.50
2022-11-25T00:35:58.684Z,28.50
2022-11-25T00:36:58.709Z,24.30
2022-11-25T00:37:58.682Z,22.90
2022-11-25T00:38:58.829Z,34.40
2022-11-25T00:39:58.690Z,28.80
2022-11-25T00:40:58.706Z,33.20
2022-11-25T00:41:58.693Z,31.30
2022-11-25T00:42:58.727Z,27.90
2022-11-25T00:43:58.685Z,32.60
2022-11-25T00:44:58.858Z,35.00
2022-11-25T00:45:58.820Z,27.30
2022-11-25T00:46:58.712Z,25.80
2022-11-25T00:47:58.695Z,32.20
2022-11-25T00:48:58.707Z,24.70
2022-11-25T00:49:58.697Z,39.80
2022-11-25T00:50:58.808Z,34.00
2022-11-25T00:51:58.678Z,34.80
2022-11-25T00:52:58.702Z,31.30
2022-11-25T00:53:59.057Z,30.90
2022-11-25T00:54:58.707Z,34.30
2022-11-25T00:55:58.678Z,36.80
2022-11-25T00:56:58.835Z,33.80
2022-11-25T00:57:58.671Z,34.20
2022-11-25T00:58:58.692Z,31.10
2022-11-25T00:59:58.662Z,28.40
2022-11-25T01:00:58.738Z,36.20
2022-11-25T01:01:58.726Z,37.80
2022-11-25T01:02:58.737Z,37.40
2022-11-25T01:03:58.629Z,38.70
2022-11-25T01:04:58.648Z,31.70
2022-11-25T01:05:58.643Z,36.00
2022-11-25T01:06:58.630Z,36.80
2022-11-25T01:07:58.632Z,35.40
2022-11-25T01:08:58.736Z,26.80
2022-11-25T01:09:58.605Z,30.60
2022-11-25T01:10:58.625Z,34.80
2022-11-25T01:11:58.622Z,29.90
2022-11-25T01:12:58.632Z,28.50
2022-11-25T01:14:01.466Z,33.60
2022-11-25T01:14:58.664Z,41.30
2022-11-25T01:15:58.633Z,40.20
2022-11-25T01:16:58.628Z,37.70
2022-11-25T01:17:58.623Z,33.40
2022-11-25T01:19:03.540Z,32.00
2022-11-25T01:20:03.817Z,35.50
2022-11-25T01:21:03.621Z,28.30
2022-11-25T01:22:03.658Z,31.30
2022-11-25T01:23:03.627Z,36.10
2022-11-25T01:24:03.672Z,33.50
2022-11-25T01:25:03.642Z,38.70
2022-11-25T01:26:09.579Z,46.80
2022-11-25T01:27:09.670Z,35.70
2022-11-25T01:28:09.653Z,38.00
2022-11-25T01:29:10.261Z,36.70
2022-11-25T01:30:09.672Z,43.00
2022-11-25T01:31:09.882Z,35.00
2022-11-25T01:32:09.773Z,33.80
2022-11-25T01:33:09.728Z,30.90
2022-11-25T01:34:09.692Z,37.20
2022-11-25T01:35:09.754Z,36.60
2022-11-25T01:36:09.708Z,41.40
2022-11-25T01:37:09.743Z,42.30
2022-11-25T01:38:09.701Z,34.20
2022-11-25T01:39:09.747Z,41.90
2022-11-25T01:40:09.738Z,32.80
2022-11-25T01:41:09.758Z,36.70
2022-11-25T01:42:09.724Z,38.10
2022-11-25T01:43:09.775Z,43.40
2022-11-25T01:44:09.735Z,39.00
2022-11-25T01:45:09.770Z,37.60
2022-11-25T01:46:09.850Z,37.90
2022-11-25T01:47:09.765Z,35.10
2022-11-25T01:48:09.742Z,35.80
2022-11-25T01:49:09.857Z,37.10
2022-11-25T01:50:09.776Z,45.00
2022-11-25T01:51:09.791Z,32.80
2022-11-25T01:52:09.801Z,41.00
2022-11-25T01:53:09.799Z,44.10
2022-11-25T01:54:09.763Z,41.30
2022-11-25T01:55:09.833Z,44.70
2022-11-25T01:56:09.791Z,41.20
2022-11-25T01:57:09.803Z,40.10
2022-11-25T01:58:09.788Z,46.70
2022-11-25T01:59:09.806Z,40.40
2022-11-25T02:00:09.892Z,39.90
2022-11-25T02:01:09.975Z,43.30
2022-11-25T02:02:09.906Z,40.80
2022-11-25T02:03:09.833Z,34.40
2022-11-25T02:04:09.797Z,33.70
2022-11-25T02:05:09.808Z,42.40
2022-11-25T02:06:09.796Z,41.50
2022-11-25T02:07:10.028Z,40.70
2022-11-25T02:08:09.795Z,44.00
2022-11-25T02:09:09.821Z,38.10
2022-11-25T02:10:09.812Z,36.90
2022-11-25T02:11:09.845Z,34.90
2022-11-25T02:12:09.812Z,37.60
2022-11-25T02:13:09.937Z,36.20
2022-11-25T02:14:09.832Z,37.70
2022-11-25T02:15:09.837Z,38.00
2022-11-25T02:16:09.860Z,40.40
2022-11-25T02:17:09.842Z,36.80
2022-11-25T02:18:09.836Z,35.30
2022-11-25T02:19:09.888Z,38.70
2022-11-25T02:20:09.821Z,32.50
2022-11-25T02:21:09.862Z,28.80
2022-11-25T02:22:09.837Z,37.70
2022-11-25T02:23:09.860Z,37.50
2022-11-25T02:24:09.858Z,34.20
2022-11-25T02:25:09.991Z,47.10
2022-11-25T02:26:10.411Z,34.10
2022-11-25T02:27:09.917Z,39.90
2022-11-25T02:28:09.894Z,43.40
2022-11-25T02:29:09.926Z,44.80
2022-11-25T02:30:09.906Z,39.10
2022-11-25T02:31:09.953Z,31.90
2022-11-25T02:32:09.934Z,40.70
2022-11-25T02:33:09.922Z,34.80
2022-11-25T02:34:09.876Z,44.00
2022-11-25T02:35:09.906Z,38.70
2022-11-25T02:36:09.893Z,36.40
2022-11-25T02:37:09.925Z,43.60
2022-11-25T02:38:09.910Z,35.50
2022-11-25T02:39:09.923Z,32.40
2022-11-25T02:40:09.904Z,30.90
2022-11-25T02:41:13.948Z,37.50
2022-11-25T02:42:14.029Z,34.20
2022-11-25T02:43:13.918Z,38.40
2022-11-25T02:44:13.936Z,34.30
2022-11-25T02:45:13.916Z,38.00
2022-11-25T02:46:18.780Z,36.10
2022-11-25T02:47:13.907Z,41.40
2022-11-25T02:48:13.925Z,36.50
2022-11-25T02:49:13.932Z,45.30
2022-11-25T02:50:13.967Z,36.00
2022-11-25T02:51:14.680Z,34.90
2022-11-25T02:52:18.851Z,38.70
2022-11-25T02:53:18.976Z,34.30
2022-11-25T02:54:18.915Z,33.60
2022-11-25T02:55:18.963Z,35.60
2022-11-25T02:56:18.922Z,35.80
2022-11-25T02:57:18.940Z,43.90
2022-11-25T02:58:18.922Z,40.90
2022-11-25T02:59:18.927Z,40.70
2022-11-25T03:00:18.930Z,46.50
2022-11-25T03:01:19.120Z,34.50
2022-11-25T03:02:18.971Z,36.60
2022-11-25T03:03:19.467Z,31.70
2022-11-25T03:04:18.907Z,29.00
2022-11-25T03:05:18.950Z,35.80
2022-11-25T03:06:18.938Z,43.00
2022-11-25T03:07:19.004Z,33.40
2022-11-25T03:08:18.918Z,40.70
2022-11-25T03:09:18.944Z,38.80
2022-11-25T03:10:18.922Z,36.50
2022-11-25T03:11:18.931Z,38.70
2022-11-25T03:12:18.942Z,41.50
2022-11-25T03:13:19.075Z,43.10
2022-11-25T03:14:18.914Z,31.30
2022-11-25T03:15:18.943Z,42.70
2022-11-25T03:16:19.020Z,34.70
2022-11-25T03:17:18.946Z,40.70
2022-11-25T03:18:18.946Z,44.50
2022-11-25T03:19:18.994Z,38.40
2022-11-25T03:20:18.941Z,44.30
2022-11-25T03:21:18.956Z,34.40
2022-11-25T03:22:19.102Z,41.10
2022-11-25T03:23:18.974Z,38.60
2022-11-25T03:24:18.937Z,37.70
2022-11-25T03:25:19.000Z,42.80
2022-11-25T03:26:18.925Z,37.50
2022-11-25T03:27:18.963Z,31.00
2022-11-25T03:28:18.951Z,45.90
2022-11-25T03:29:18.987Z,43.00
2022-11-25T03:30:18.945Z,38.60
2022-11-25T03:31:19.137Z,34.90
2022-11-25T03:32:19.000Z,36.10
2022-11-25T03:33:19.008Z,42.80
2022-11-25T03:34:18.989Z,39.00
2022-11-25T03:35:19.014Z,41.10
2022-11-25T03:36:18.981Z,38.60
2022-11-25T03:37:19.196Z,39.10
2022-11-25T03:38:18.994Z,32.00
2022-11-25T03:39:19.032Z,38.10
2022-11-25T03:40:19.001Z,36.20
2022-11-25T03:41:19.035Z,45.40
2022-11-25T03:42:19.038Z,36.00
2022-11-25T03:43:19.145Z,39.00
2022-11-25T03:44:19.054Z,34.20
2022-11-25T03:45:19.054Z,42.20
2022-11-25T03:46:19.108Z,36.20
2022-11-25T03:47:19.060Z,44.60
2022-11-25T03:48:19.042Z,44.10
2022-11-25T03:49:23.969Z,39.00
2022-11-25T03:50:24.081Z,38.80
2022-11-25T03:51:24.057Z,36.90
2022-11-25T03:52:24.100Z,38.50
2022-11-25T03:53:24.067Z,41.10
2022-11-25T03:54:24.252Z,38.60
2022-11-25T03:55:24.081Z,35.50
2022-11-25T03:56:24.111Z,52.00
2022-11-25T03:58:28.981Z,43.00
2022-11-25T03:59:29.116Z,34.30
2022-11-25T04:00:29.136Z,48.20
2022-11-25T04:01:29.204Z,37.10
2022-11-25T04:02:29.183Z,46.40
2022-11-25T04:03:29.091Z,35.10
2022-11-25T04:04:29.222Z,37.90
2022-11-25T04:05:29.106Z,35.70
2022-11-25T04:06:29.215Z,39.60
2022-11-25T04:07:29.191Z,36.00
2022-11-25T04:08:29.128Z,32.60
2022-11-25T04:09:29.132Z,40.10
2022-11-25T04:10:29.246Z,42.30
2022-11-25T04:11:29.177Z,42.60
2022-11-25T04:12:29.125Z,35.80
2022-11-25T04:13:29.122Z,36.80
2022-11-25T04:14:29.111Z,37.90
2022-11-25T04:15:29.242Z,29.10
2022-11-25T04:16:29.200Z,34.10
2022-11-25T04:17:29.166Z,38.10
2022-11-25T04:18:29.146Z,41.30
2022-11-25T04:19:29.161Z,40.70
2022-11-25T04:20:29.127Z,32.60
2022-11-25T04:21:29.134Z,36.80
2022-11-25T04:22:29.130Z,38.00
2022-11-25T04:23:34.170Z,49.80
2022-11-25T04:24:34.604Z,44.10
2022-11-25T04:25:34.170Z,47.00
2022-11-25T04:26:34.183Z,37.60
2022-11-25T04:27:34.164Z,37.20
2022-11-25T04:28:34.192Z,39.30
2022-11-25T04:29:34.177Z,35.90
2022-11-25T04:30:34.294Z,37.00
2022-11-25T04:31:34.184Z,36.40
2022-11-25T04:32:34.224Z,31.10
2022-11-25T04:33:34.198Z,37.50
2022-11-25T04:36:28.316Z,35.90
2022-11-25T04:37:29.037Z,38.00
2022-11-25T04:38:33.105Z,28.30
2022-11-25T04:39:33.222Z,34.20
2022-11-25T04:40:33.213Z,35.60
2022-11-25T04:41:33.252Z,34.20
2022-11-25T04:42:33.254Z,45.20
2022-11-25T04:43:33.250Z,30.10
2022-11-25T04:44:33.354Z,36.90
2022-11-25T04:45:51.622Z,34.60
2022-11-25T04:46:33.300Z,34.10
2022-11-25T04:47:33.340Z,33.30
2022-11-25T04:48:33.285Z,33.70
2022-11-25T04:49:33.330Z,35.40
2022-11-25T04:50:33.318Z,31.30
2022-11-25T04:51:33.351Z,32.40
2022-11-25T04:52:33.491Z,33.70
2022-11-25T04:53:33.358Z,32.70
2022-11-25T04:54:33.787Z,36.50
2022-11-25T04:55:33.384Z,39.30
2022-11-25T04:56:33.492Z,31.90
2022-11-25T04:57:33.413Z,37.60
2022-11-25T04:58:33.435Z,30.40
2022-11-25T04:59:33.415Z,29.30
2022-11-25T05:00:33.413Z,35.20
2022-11-25T05:01:33.586Z,32.10
2022-11-25T05:02:33.572Z,29.80
2022-11-25T05:03:33.494Z,31.70
2022-11-25T05:04:33.740Z,25.00
2022-11-25T05:05:33.470Z,32.30
2022-11-25T05:06:33.452Z,38.90
2022-11-25T05:07:33.537Z,37.30
2022-11-25T05:08:33.459Z,30.30
2022-11-25T05:09:33.498Z,32.40
2022-11-25T05:10:33.477Z,29.60
2022-11-25T05:11:33.499Z,28.10
2022-11-25T05:12:33.497Z,29.60
2022-11-25T05:13:33.523Z,28.00
2022-11-25T05:14:33.742Z,39.10
2022-11-25T05:15:33.649Z,29.10
2022-11-25T05:16:33.559Z,29.00
2022-11-25T05:17:33.567Z,35.20
2022-11-25T05:18:33.517Z,31.20
2022-11-25T05:19:33.531Z,27.20
2022-11-25T05:20:33.610Z,25.30
2022-11-25T05:21:33.534Z,28.30
2022-11-25T05:22:33.517Z,28.90
2022-11-25T05:23:33.533Z,25.20
2022-11-25T05:24:33.772Z,20.30
2022-11-25T05:25:33.554Z,21.80
2022-11-25T05:26:33.534Z,23.60
2022-11-25T05:27:33.557Z,27.60
2022-11-25T05:28:33.560Z,22.40
2022-11-25T05:29:33.577Z,21.10
2022-11-25T05:30:33.637Z,18.70
2022-11-25T05:31:33.605Z,22.90
2022-11-25T05:32:33.568Z,20.40
2022-11-25T05:33:33.591Z,21.20
2022-11-25T05:34:33.944Z,25.10
2022-11-25T05:35:33.624Z,22.80
2022-11-25T05:36:34.121Z,16.00
2022-11-25T05:37:33.624Z,18.50
2022-11-25T05:38:33.733Z,19.70
2022-11-25T05:39:33.616Z,17.20
2022-11-25T05:40:33.614Z,22.00
2022-11-25T05:41:33.652Z,24.20
2022-11-25T05:42:33.646Z,17.50
2022-11-25T05:43:33.679Z,19.00
2022-11-25T05:44:33.647Z,20.00
2022-11-25T05:45:33.675Z,17.50
2022-11-25T05:46:33.742Z,16.50
2022-11-25T05:47:33.725Z,13.80
2022-11-25T05:48:33.697Z,14.40
2022-11-25T05:49:33.782Z,13.80
2022-11-25T05:50:33.712Z,16.10
2022-11-25T05:51:33.748Z,15.40
2022-11-25T05:52:33.728Z,16.00
2022-11-25T05:53:33.788Z,19.70
2022-11-25T05:54:33.909Z,13.20
2022-11-25T05:55:33.779Z,19.10
2022-11-25T05:56:33.768Z,18.20
2022-11-25T05:57:33.816Z,16.90
2022-11-25T05:58:33.886Z,13.90
2022-11-25T05:59:33.918Z,15.40
2022-11-25T06:00:33.817Z,16.40
2022-11-25T06:01:33.839Z,13.80
2022-11-25T06:02:33.879Z,18.90
2022-11-25T06:03:33.911Z,17.50
2022-11-25T06:04:34.074Z,17.20
2022-11-25T06:05:33.837Z,14.30
2022-11-25T06:06:33.846Z,14.20
2022-11-25T06:07:33.917Z,18.90
2022-11-25T06:08:33.837Z,13.60
2022-11-25T06:09:33.968Z,17.90
2022-11-25T06:10:33.886Z,18.10
2022-11-25T06:11:33.866Z,14.70
2022-11-25T06:12:33.875Z,14.70
2022-11-25T06:13:33.904Z,18.60
2022-11-25T06:14:34.103Z,16.10
2022-11-25T06:15:34.009Z,17.30
2022-11-25T06:16:34.015Z,20.10
2022-11-25T06:17:33.921Z,16.90
2022-11-25T06:18:33.922Z,19.50
2022-11-25T06:19:33.944Z,18.90
2022-11-25T06:20:34.027Z,17.70
2022-11-25T06:21:34.040Z,17.80
2022-11-25T06:22:33.937Z,27.90
2022-11-25T06:23:33.949Z,24.40
2022-11-25T06:24:34.120Z,19.10
2022-11-25T06:25:33.933Z,18.70
2022-11-25T06:26:34.418Z,15.10
2022-11-25T06:28:10.683Z,21.00
2022-11-25T06:28:38.925Z,17.20
2022-11-25T06:29:38.895Z,20.50
2022-11-25T06:30:38.930Z,14.30
2022-11-25T06:31:38.927Z,17.90
2022-11-25T06:32:38.926Z,24.80
2022-11-25T06:33:38.909Z,18.70
2022-11-25T06:34:39.044Z,22.90
2022-11-25T06:35:38.913Z,24.30
2022-11-25T06:36:38.963Z,18.70
2022-11-25T06:37:43.868Z,18.30
2022-11-25T06:38:43.945Z,19.90
2022-11-25T06:39:43.935Z,23.80
2022-11-25T06:40:43.977Z,19.50
2022-11-25T06:41:43.981Z,18.40
2022-11-25T06:42:43.992Z,20.20
2022-11-25T06:43:43.969Z,20.70
2022-11-25T06:44:44.000Z,22.50
2022-11-25T06:45:43.987Z,25.80
2022-11-25T06:46:44.183Z,25.10
2022-11-25T06:47:44.014Z,22.60
2022-11-25T06:48:48.926Z,21.60
2022-11-25T06:49:49.296Z,21.90
2022-11-25T06:50:49.174Z,22.70
2022-11-25T06:51:52.987Z,20.90
2022-11-25T06:52:53.076Z,21.90
2022-11-25T06:53:53.067Z,22.70
2022-11-25T06:54:53.086Z,26.80
2022-11-25T06:55:53.571Z,21.70
2022-11-25T06:56:53.303Z,22.40
2022-11-25T06:57:59.082Z,22.10
2022-11-25T06:58:53.121Z,25.00
2022-11-25T06:59:53.124Z,31.50
2022-11-25T07:00:53.178Z,22.70
2022-11-25T07:01:53.188Z,20.10
2022-11-25T07:02:53.315Z,23.10
2022-11-25T07:03:53.191Z,29.70
2022-11-25T07:04:53.217Z,25.30
2022-11-25T07:05:53.301Z,30.60
2022-11-25T07:06:53.304Z,22.50
2022-11-25T07:07:53.450Z,28.70
2022-11-25T07:08:53.255Z,27.40
2022-11-25T07:09:53.232Z,22.70
2022-11-25T07:10:53.298Z,35.30
2022-11-25T07:11:53.237Z,27.00
2022-11-25T07:12:53.274Z,26.30
2022-11-25T07:13:53.387Z,22.40
2022-11-25T07:14:53.283Z,27.10
2022-11-25T07:15:53.318Z,24.30
2022-11-25T07:16:58.187Z,27.30
2022-11-25T07:17:58.292Z,23.90
2022-11-25T07:18:58.425Z,27.90
2022-11-25T07:19:58.321Z,19.30
2022-11-25T07:20:58.422Z,22.90
2022-11-25T07:21:58.816Z,22.20
2022-11-25T07:22:58.333Z,27.70
2022-11-25T07:23:58.346Z,24.70
2022-11-25T07:24:58.439Z,23.60
2022-11-25T07:25:58.369Z,23.10
2022-11-25T07:26:58.364Z,24.00
2022-11-25T07:27:58.403Z,27.00
2022-11-25T07:28:58.438Z,28.50
2022-11-25T07:30:29.540Z,28.40
2022-11-25T07:31:23.423Z,27.20
2022-11-25T07:31:58.417Z,28.00
2022-11-25T07:32:58.400Z,18.70
2022-11-25T07:33:58.409Z,24.40
2022-11-25T07:34:58.380Z,22.10
2022-11-25T07:35:58.416Z,24.80
2022-11-25T07:36:58.408Z,26.30
2022-11-25T07:37:58.483Z,25.80
2022-11-25T07:38:58.410Z,23.70
2022-11-25T07:40:02.355Z,26.90
2022-11-25T07:41:02.469Z,22.00
2022-11-25T07:42:02.563Z,17.70
2022-11-25T07:43:02.469Z,17.60
2022-11-25T07:44:02.458Z,21.80
2022-11-25T07:45:02.500Z,24.40
2022-11-25T07:46:02.563Z,26.30
2022-11-25T07:47:02.513Z,25.50
2022-11-25T07:48:02.626Z,28.40
2022-11-25T07:49:02.511Z,22.80
2022-11-25T07:50:02.493Z,19.70
2022-11-25T07:51:02.533Z,22.60
2022-11-25T07:52:02.780Z,22.80
2022-11-25T07:55:02.588Z,23.70
2022-11-25T07:56:02.598Z,22.10
2022-11-25T07:57:02.563Z,25.20
2022-11-25T07:58:02.591Z,24.00
2022-11-25T07:59:02.577Z,26.40
2022-11-25T08:00:02.637Z,25.20
2022-11-25T08:01:02.601Z,27.30
2022-11-25T08:02:02.700Z,23.10
2022-11-25T08:03:02.817Z,25.40
2022-11-25T08:04:02.639Z,24.10
2022-11-25T08:05:02.623Z,18.50
2022-11-25T08:06:02.669Z,23.60
2022-11-25T08:07:02.611Z,21.00
2022-11-25T08:08:02.735Z,29.60
2022-11-25T08:09:02.662Z,19.70
2022-11-25T08:10:02.650Z,25.50
2022-11-25T08:11:02.620Z,22.00
2022-11-25T08:12:02.784Z,24.30
2022-11-25T08:13:02.628Z,23.70
2022-11-25T08:14:02.761Z,18.30
2022-11-25T08:15:02.660Z,20.70
2022-11-25T08:16:02.727Z,23.50
2022-11-25T08:17:02.640Z,21.50
2022-11-25T08:18:02.700Z,27.90
2022-11-25T08:19:02.656Z,26.80
2022-11-25T08:20:02.696Z,31.20
2022-11-25T08:21:02.685Z,24.60
2022-11-25T08:22:02.671Z,22.60
2022-11-25T08:23:02.654Z,26.70
2022-11-25T08:24:02.686Z,24.70
2022-11-25T08:25:02.816Z,30.60
2022-11-25T08:26:02.699Z,21.30
2022-11-25T08:27:02.688Z,27.60
2022-11-25T08:28:02.703Z,27.40
2022-11-25T08:29:02.688Z,25.80
2022-11-25T08:30:02.742Z,29.00
2022-11-25T08:31:02.742Z,18.60
2022-11-25T08:32:07.443Z,25.80
2022-11-25T08:33:02.718Z,24.30
2022-11-25T08:34:02.754Z,18.40
2022-11-25T08:35:02.731Z,18.90
2022-11-25T08:36:02.882Z,24.70
2022-11-25T08:37:02.752Z,21.40
2022-11-25T08:38:02.780Z,18.30
2022-11-25T08:39:03.279Z,27.40
2022-11-25T08:40:02.814Z,26.20
2022-11-25T08:41:02.922Z,17.70
2022-11-25T08:42:02.811Z,18.10
2022-11-25T08:43:02.801Z,19.60
2022-11-25T08:44:02.814Z,17.90
2022-11-25T08:45:02.813Z,19.80
2022-11-25T08:46:02.881Z,24.20
2022-11-25T08:47:03.077Z,22.10
2022-11-25T08:48:02.884Z,25.80
2022-11-25T08:49:03.337Z,23.50
2022-11-25T08:50:02.869Z,22.30
2022-11-25T08:51:02.849Z,25.40
2022-11-25T08:52:02.868Z,18.00
2022-11-25T08:53:02.887Z,19.30
2022-11-25T08:54:02.903Z,24.70
2022-11-25T08:55:02.874Z,20.30
2022-11-25T08:56:02.928Z,21.20
2022-11-25T08:57:02.917Z,22.90
2022-11-25T08:58:03.081Z,20.70
2022-11-25T08:59:02.939Z,17.30
2022-11-25T09:00:02.973Z,18.20
2022-11-25T09:01:02.963Z,21.30
2022-11-25T09:02:03.079Z,17.40
2022-11-25T09:03:04.483Z,19.40
2022-11-25T09:04:03.123Z,19.00
2022-11-25T09:05:02.988Z,20.80
2022-11-25T09:06:02.998Z,31.90
2022-11-25T09:07:03.002Z,19.50
2022-11-25T09:08:03.126Z,20.00
2022-11-25T09:09:03.166Z,21.10
2022-11-25T09:10:03.145Z,12.80
2022-11-25T09:11:03.078Z,16.20
2022-11-25T09:12:03.057Z,18.90
2022-11-25T09:13:03.068Z,20.80
2022-11-25T09:14:03.187Z,21.20
2022-11-25T09:15:03.058Z,18.60
2022-11-25T09:16:03.251Z,17.40
2022-11-25T09:17:03.080Z,18.60
2022-11-25T09:18:03.118Z,17.30
2022-11-25T09:19:03.102Z,18.70
2022-11-25T09:20:03.115Z,19.20
2022-11-25T09:22:09.166Z,21.20
2022-11-25T09:23:09.132Z,18.80
2022-11-25T09:24:09.106Z,18.00
2022-11-25T09:25:09.144Z,21.70
2022-11-25T09:26:09.123Z,16.70
2022-11-25T09:27:09.128Z,14.80
2022-11-25T09:28:09.264Z,16.40
2022-11-25T09:29:09.162Z,19.50
2022-11-25T09:30:09.298Z,19.90
2022-11-25T09:31:09.325Z,18.80
2022-11-25T09:32:09.171Z,17.10
2022-11-25T09:33:15.219Z,15.60
2022-11-25T09:34:15.210Z,18.20
2022-11-25T09:35:15.190Z,20.10
2022-11-25T09:36:15.219Z,17.20
2022-11-25T09:37:15.228Z,16.50
2022-11-25T09:38:15.330Z,20.20
2022-11-25T09:39:15.237Z,17.70
2022-11-25T09:40:15.332Z,14.70
2022-11-25T09:41:15.207Z,15.30
2022-11-25T09:42:15.234Z,17.20
2022-11-25T09:43:15.198Z,21.30
2022-11-25T09:44:15.371Z,16.40
2022-11-25T09:45:15.198Z,19.90
2022-11-25T09:46:15.382Z,16.40
2022-11-25T09:47:15.238Z,18.70
2022-11-25T09:48:15.260Z,13.70
2022-11-25T09:49:15.244Z,20.20
2022-11-25T09:50:15.403Z,18.40
2022-11-25T09:51:15.345Z,17.50
2022-11-25T09:52:15.284Z,19.30
2022-11-25T09:53:15.258Z,18.30
2022-11-25T09:54:15.290Z,26.40
2022-11-25T09:55:15.292Z,19.00
2022-11-25T09:56:15.454Z,13.50
2022-11-25T09:57:15.292Z,15.60
2022-11-25T09:58:15.315Z,22.10
2022-11-25T09:59:15.303Z,15.90
2022-11-25T10:00:15.334Z,20.40
2022-11-25T10:01:15.334Z,19.50
2022-11-25T10:02:15.536Z,13.60
2022-11-25T10:03:15.390Z,20.20
2022-11-25T10:04:15.356Z,15.40
2022-11-25T10:05:15.345Z,19.10
2022-11-25T10:06:15.427Z,18.30
2022-11-25T10:07:15.346Z,18.40
2022-11-25T10:08:15.533Z,18.30
2022-11-25T10:09:15.379Z,19.40
2022-11-25T10:10:15.399Z,23.80
2022-11-25T10:11:15.391Z,20.20
2022-11-25T10:12:15.409Z,30.30
2022-11-25T10:13:15.422Z,18.60
2022-11-25T10:14:15.557Z,18.20
2022-11-25T10:15:15.411Z,16.30
2022-11-25T10:16:15.510Z,18.30
2022-11-25T10:17:15.417Z,22.30
2022-11-25T10:18:15.467Z,16.40
2022-11-25T10:19:15.442Z,17.60
2022-11-25T10:20:15.570Z,19.10
2022-11-25T10:21:15.463Z,19.20
2022-11-25T10:22:15.493Z,18.90
2022-11-25T10:23:15.666Z,19.60
2022-11-25T10:24:15.514Z,19.10
2022-11-25T10:25:15.500Z,30.50
2022-11-25T10:26:20.481Z,19.60
2022-11-25T10:27:20.571Z,18.60
2022-11-25T10:28:20.584Z,22.70
2022-11-25T10:29:20.590Z,19.00
2022-11-25T10:30:20.640Z,21.90
2022-11-25T10:31:20.929Z,18.40
2022-11-25T10:32:20.646Z,17.40
2022-11-25T10:33:20.671Z,20.30
2022-11-25T10:34:20.657Z,19.90
2022-11-25T10:35:20.659Z,21.10
2022-11-25T10:36:20.639Z,21.80
2022-11-25T10:37:20.844Z,21.90
2022-11-25T10:38:20.654Z,20.40
2022-11-25T10:39:20.686Z,22.10
2022-11-25T10:40:20.693Z,22.00
2022-11-25T10:41:20.708Z,20.40
2022-11-25T10:42:20.686Z,24.20
2022-11-25T10:43:20.926Z,26.20
2022-11-25T10:44:20.711Z,15.70
2022-11-25T10:45:20.732Z,22.30
2022-11-25T10:46:20.868Z,22.30
2022-11-25T10:47:20.835Z,17.40
2022-11-25T10:48:20.752Z,19.80
2022-11-25T10:49:25.650Z,23.20
2022-11-25T10:50:25.749Z,17.80
2022-11-25T10:51:25.746Z,18.70
2022-11-25T10:52:25.787Z,19.90
2022-11-25T10:53:25.887Z,23.80
2022-11-25T10:54:27.990Z,20.90
2022-11-25T10:55:25.801Z,21.60
2022-11-25T10:56:30.717Z,24.70
2022-11-25T10:57:30.879Z,20.70
2022-11-25T10:58:30.831Z,20.50
2022-11-25T10:59:30.953Z,20.90
2022-11-25T11:00:30.854Z,25.50
2022-11-25T11:01:30.890Z,17.10
2022-11-25T11:02:30.941Z,15.20
2022-11-25T11:03:30.899Z,20.30
2022-11-25T11:04:36.034Z,22.80
2022-11-25T11:05:35.864Z,16.80
2022-11-25T11:06:35.838Z,22.20
2022-11-25T11:07:36.006Z,19.40
2022-11-25T11:08:35.863Z,16.20
2022-11-25T11:09:35.940Z,19.00
2022-11-25T11:10:35.901Z,15.60
2022-11-25T11:11:35.917Z,21.60
2022-11-25T11:12:35.897Z,15.40
2022-11-25T11:13:41.934Z,21.40
2022-11-25T11:14:42.055Z,20.60
2022-11-25T11:15:42.065Z,18.70
2022-11-25T11:16:42.064Z,23.20
2022-11-25T11:17:41.970Z,23.30
2022-11-25T11:18:46.910Z,25.30
2022-11-25T11:19:47.167Z,21.00
2022-11-25T11:20:47.017Z,19.70
2022-11-25T11:21:47.034Z,20.50
2022-11-25T11:22:47.017Z,23.00
2022-11-25T11:23:47.101Z,18.60
2022-11-25T11:24:47.039Z,26.30
2022-11-25T11:25:47.170Z,20.20
2022-11-25T11:26:47.096Z,21.10
2022-11-25T11:27:47.119Z,26.00
2022-11-25T11:28:47.084Z,23.20
2022-11-25T11:29:47.145Z,19.40
2022-11-25T11:30:47.138Z,24.40
2022-11-25T11:31:47.381Z,20.30
2022-11-25T11:32:47.123Z,19.20
2022-11-25T11:33:47.211Z,20.30
2022-11-25T11:34:47.171Z,20.50
2022-11-25T11:35:47.193Z,21.30
2022-11-25T11:36:47.159Z,19.50
2022-11-25T11:37:47.241Z,22.80
2022-11-25T11:38:47.227Z,26.60
2022-11-25T11:39:52.249Z,24.30
2022-11-25T11:40:52.699Z,22.20
2022-11-25T11:41:52.243Z,22.40
2022-11-25T11:42:52.404Z,21.50
2022-11-25T11:43:52.267Z,19.40
2022-11-25T11:44:52.290Z,22.60
2022-11-25T11:45:52.280Z,25.60
2022-11-25T11:46:52.365Z,24.30
2022-11-25T11:47:52.324Z,25.10
2022-11-25T11:48:53.565Z,21.10
2022-11-25T11:49:52.308Z,28.50
2022-11-25T11:50:52.341Z,25.30
2022-11-25T11:51:52.367Z,20.70
2022-11-25T11:52:52.380Z,22.90
2022-11-25T11:53:52.506Z,27.80
2022-11-25T11:54:52.385Z,23.30
2022-11-25T11:56:18.906Z,23.60
2022-11-25T11:56:55.397Z,31.40
2022-11-25T11:57:52.405Z,19.50
2022-11-25T11:58:52.440Z,23.10
2022-11-25T11:59:52.575Z,26.60
2022-11-25T12:00:52.494Z,25.00
2022-11-25T12:01:52.538Z,28.40
2022-11-25T12:02:52.589Z,21.50
2022-11-25T12:03:54.347Z,25.50
2022-11-25T12:04:52.675Z,25.20
2022-11-25T12:05:52.589Z,27.80
2022-11-25T12:06:52.635Z,25.80
2022-11-25T12:07:52.711Z,20.60
2022-11-25T12:08:52.676Z,23.80
2022-11-25T12:09:52.675Z,20.90
2022-11-25T12:10:52.745Z,23.20
2022-11-25T12:11:52.728Z,24.30
2022-11-25T12:12:52.749Z,23.70
2022-11-25T12:13:56.584Z,23.50
2022-11-25T12:14:52.780Z,25.70
2022-11-25T12:15:52.943Z,26.10
2022-11-25T12:16:52.905Z,24.60
2022-11-25T12:19:46.723Z,28.30
2022-11-25T12:20:46.837Z,26.90
2022-11-25T12:21:46.958Z,23.70
2022-11-25T12:22:46.868Z,21.10
2022-11-25T12:23:46.842Z,24.40
2022-11-25T12:24:46.876Z,23.30
2022-11-25T12:25:46.848Z,26.50
2022-11-25T12:26:46.889Z,24.20
2022-11-25T12:27:47.007Z,29.80
2022-11-25T12:28:46.923Z,30.00
2022-11-25T12:29:46.903Z,24.80
2022-11-25T12:30:46.932Z,22.80
2022-11-25T12:31:46.963Z,24.80
2022-11-25T12:32:46.965Z,24.30
2022-11-25T12:33:46.988Z,28.50
2022-11-25T12:34:47.010Z,24.60
2022-11-25T12:35:47.023Z,29.70
2022-11-25T12:36:47.033Z,27.10
2022-11-25T12:37:47.026Z,22.80
2022-11-25T12:38:47.654Z,28.50
2022-11-25T12:39:47.054Z,28.60
2022-11-25T12:40:47.081Z,29.10
2022-11-25T12:41:47.077Z,30.80
2022-11-25T12:42:47.090Z,25.10
2022-11-25T12:43:47.104Z,23.50
2022-11-25T12:44:47.235Z,22.60
2022-11-25T12:45:47.167Z,32.80
2022-11-25T12:46:47.148Z,22.40
2022-11-25T12:47:47.155Z,21.80
2022-11-25T12:48:47.175Z,25.60
2022-11-25T12:49:47.192Z,29.80
2022-11-25T12:50:47.334Z,23.90
2022-11-25T12:51:47.223Z,28.20
2022-11-25T12:52:47.211Z,31.90
2022-11-25T12:53:47.196Z,20.30
2022-11-25T12:54:47.355Z,25.70
2022-11-25T12:55:47.240Z,23.40
2022-11-25T12:56:47.290Z,26.80
2022-11-25T12:57:49.151Z,27.40
2022-11-25T12:58:47.350Z,26.40
2022-11-25T12:59:47.306Z,41.20
2022-11-25T13:00:47.451Z,31.80
2022-11-25T13:01:47.475Z,31.20
2022-11-25T13:02:47.531Z,26.40
2022-11-25T13:03:47.352Z,31.60
2022-11-25T13:04:47.427Z,26.80